Time;durP1;ratioP1;P1;durP2;ratioP2;P2;SDS_P1;SDS_P2;PMS_P1;PMS_P2;Temp;Humidity;BMP_temperature;BMP_pressure;BME280_temperature;BME280_humidity;BME280_pressure;Samples;Min_cycle;Max_cycle;Signal;HPM_P1;HPM_P2
2022/07/11 00:00:20;;;;;;;7.30;4.50;;;;;;;15.73;88.48;101002.84;5122240;27;20537;-69
2022/07/11 00:02:46;;;;;;;6.27;4.83;;;;;;;15.67;88.97;101006.13;5122672;28;20442;-69
2022/07/11 00:05:14;;;;;;;5.63;3.83;;;;;;;15.77;88.60;101012.31;5122133;28;20705;-69
2022/07/11 00:07:41;;;;;;;8.90;4.90;;;;;;;15.78;88.33;101011.34;5122267;28;20450;-69
2022/07/11 00:10:08;;;;;;;7.57;5.10;;;;;;;15.66;88.83;101001.78;5122066;28;20503;-69
2022/07/11 00:12:35;;;;;;;6.60;4.53;;;;;;;15.72;88.59;100998.44;5122656;28;20805;-69
2022/07/11 00:15:02;;;;;;;8.30;4.87;;;;;;;15.76;88.29;101002.56;5123096;28;20461;-69
2022/07/11 00:17:28;;;;;;;7.80;4.77;;;;;;;15.88;88.26;100999.59;5122144;27;20501;-69
2022/07/11 00:19:55;;;;;;;5.03;4.50;;;;;;;15.88;88.33;100997.75;5121579;28;20483;-69
2022/07/11 00:22:23;;;;;;;5.67;4.30;;;;;;;15.82;88.49;100993.00;5121389;28;20474;-69
2022/07/11 00:24:50;;;;;;;7.07;5.47;;;;;;;15.75;88.88;100991.94;5122256;28;20830;-68
2022/07/11 00:27:17;;;;;;;7.13;4.07;;;;;;;15.79;88.79;100994.13;5121560;28;20474;-68
2022/07/11 00:29:44;;;;;;;5.77;4.63;;;;;;;15.88;88.70;100988.81;5121952;28;20502;-69
2022/07/11 00:32:10;;;;;;;5.90;4.53;;;;;;;15.90;88.36;100989.50;5121138;28;20470;-68
2022/07/11 00:34:37;;;;;;;8.30;4.90;;;;;;;15.89;88.50;100985.13;5121662;28;20450;-68
2022/07/11 00:37:05;;;;;;;5.43;4.70;;;;;;;15.91;88.29;100992.03;5127371;27;20470;-69
2022/07/11 00:39:33;;;;;;;4.93;4.43;;;;;;;15.94;88.31;100994.44;5125559;27;20435;-69
2022/07/11 00:42:00;;;;;;;8.07;4.73;;;;;;;15.97;88.21;100988.72;5133090;27;20500;-68
2022/07/11 00:44:27;;;;;;;5.20;4.47;;;;;;;15.91;88.59;100991.22;5122084;28;20499;-68
2022/07/11 00:46:54;;;;;;;5.33;4.83;;;;;;;15.93;88.41;100994.59;5119700;28;20474;-70
2022/07/11 00:49:21;;;;;;;7.27;4.80;;;;;;;15.90;87.81;100987.66;5135475;27;20449;-70
2022/07/11 00:51:49;;;;;;;5.63;4.10;;;;;;;15.92;87.60;100988.34;5122849;27;20577;-67
2022/07/11 00:54:17;;;;;;;8.27;4.90;;;;;;;15.96;87.73;100995.13;5122443;28;20450;-70
2022/07/11 00:56:45;;;;;;;8.13;5.77;;;;;;;15.93;88.00;100989.19;5121432;28;20474;-70
2022/07/11 00:59:12;;;;;;;5.60;4.73;;;;;;;15.92;87.81;100982.97;5122105;28;20464;-69
2022/07/11 01:01:39;;;;;;;7.97;5.17;;;;;;;15.84;88.25;100980.19;5121046;28;20528;-70
2022/07/11 01:04:06;;;;;;;10.57;4.77;;;;;;;15.88;88.65;100986.13;5122143;28;20454;-69
2022/07/11 01:06:33;;;;;;;8.47;5.13;;;;;;;15.95;88.08;100989.88;5121136;28;20470;-69
2022/07/11 01:08:59;;;;;;;5.23;4.70;;;;;;;15.93;87.93;100984.63;5122043;28;20474;-70
2022/07/11 01:11:27;;;;;;;4.87;4.30;;;;;;;15.82;88.26;100977.66;5120616;27;20980;-69
2022/07/11 01:13:55;;;;;;;10.17;5.00;;;;;;;15.79;88.67;100979.81;5121217;27;20501;-70
2022/07/11 01:16:23;;;;;;;5.67;4.83;;;;;;;15.89;88.76;100977.88;5125260;27;20550;-69
2022/07/11 01:18:51;;;;;;;5.60;4.80;;;;;;;15.93;88.40;100979.25;5129079;27;20478;-69
2022/07/11 01:21:21;;;;;;;10.47;5.77;;;;;;;15.94;88.30;100985.50;5122441;27;20545;-70
2022/07/11 01:23:50;;;;;;;6.73;4.97;;;;;;;16.00;88.33;100974.94;5121617;28;20445;-68
2022/07/11 01:26:17;;;;;;;7.03;4.83;;;;;;;16.01;88.04;100973.06;5121043;27;20496;-69
2022/07/11 01:28:44;;;;;;;7.67;5.00;;;;;;;15.95;88.31;100971.00;5121309;28;20548;-67
2022/07/11 01:31:11;;;;;;;4.87;4.43;;;;;;;15.91;88.46;100967.78;5120706;28;20466;-69
2022/07/11 01:33:38;;;;;;;7.00;4.60;;;;;;;15.95;88.30;100968.31;5121217;28;20443;-69
2022/07/11 01:36:05;;;;;;;7.73;5.30;;;;;;;15.91;88.67;100964.25;5120964;27;20547;-68
2022/07/11 01:38:32;;;;;;;10.30;5.30;;;;;;;15.81;88.62;100958.94;5109013;28;20450;-68
2022/07/11 01:41:00;;;;;;;6.70;5.27;;;;;;;15.87;88.57;100958.31;5099903;28;20474;-68
2022/07/11 01:43:27;;;;;;;8.30;6.00;;;;;;;15.88;88.75;100962.69;5100732;28;20494;-68
2022/07/11 01:45:54;;;;;;;6.47;5.30;;;;;;;15.90;88.37;100960.72;5099749;28;20498;-68
2022/07/11 01:48:21;;;;;;;7.43;5.30;;;;;;;15.85;88.23;100952.25;5112826;28;20430;-68
2022/07/11 01:50:48;;;;;;;8.00;4.97;;;;;;;15.80;88.58;100957.25;5100120;28;20478;-69
2022/07/11 01:53:14;;;;;;;6.87;5.33;;;;;;;15.78;88.69;100949.31;5100211;28;20485;-71
2022/07/11 01:55:41;;;;;;;9.73;5.70;;;;;;;15.82;88.75;100956.09;5101830;28;20499;-69
2022/07/11 01:58:09;;;;;;;6.07;5.43;;;;;;;15.87;88.83;100955.63;5107331;28;20466;-71
2022/07/11 02:00:36;;;;;;;6.90;5.87;;;;;;;15.86;88.94;100948.53;5103708;28;20463;-71
2022/07/11 02:03:03;;;;;;;6.80;4.80;;;;;;;15.74;89.02;100952.44;5101676;28;20444;-71
2022/07/11 02:05:29;;;;;;;8.43;5.63;;;;;;;15.85;88.81;100941.47;5099928;28;20467;-70
2022/07/11 02:08:14;;;;;;;9.43;5.00;;;;;;;15.85;88.67;100946.84;5088897;28;20452;-69
2022/07/11 02:10:43;;;;;;;7.90;6.07;;;;;;;15.89;88.81;100952.78;5093453;28;20491;-70
2022/07/11 02:13:12;;;;;;;6.63;5.97;;;;;;;15.88;88.92;100951.06;5099846;28;20435;-70
2022/07/11 02:15:40;;;;;;;7.33;5.67;;;;;;;15.90;88.88;100947.22;5099945;28;20470;-69
2022/07/11 02:18:07;;;;;;;8.10;7.10;;;;;;;15.94;88.81;100950.44;5100025;28;20516;-68
2022/07/11 02:20:34;;;;;;;9.77;7.63;;;;;;;15.87;89.43;100954.78;5099158;28;20466;-69
2022/07/11 02:23:03;;;;;;;9.23;8.33;;;;;;;15.93;89.05;100943.34;5099882;28;20526;-70
2022/07/11 02:25:29;;;;;;;11.13;7.20;;;;;;;15.88;89.45;100938.41;5099647;28;20459;-70
2022/07/11 02:27:56;;;;;;;10.40;8.97;;;;;;;15.95;89.22;100938.63;5100472;28;20447;-70
2022/07/11 02:30:24;;;;;;;17.63;9.33;;;;;;;15.94;89.24;100947.75;5099597;28;20453;-70
2022/07/11 02:32:51;;;;;;;10.47;8.67;;;;;;;15.99;89.18;100950.81;5100251;28;20892;-68
2022/07/11 02:35:18;;;;;;;13.40;9.50;;;;;;;15.98;89.26;100949.13;5099851;28;20484;-68
2022/07/11 02:37:45;;;;;;;16.50;8.87;;;;;;;15.99;89.06;100946.25;5113571;28;20500;-66
2022/07/11 02:40:12;;;;;;;15.43;10.10;;;;;;;15.92;89.55;100949.72;5119391;28;20485;-69
2022/07/11 02:42:39;;;;;;;18.33;10.30;;;;;;;16.03;89.29;100945.94;5119765;28;20461;-69
2022/07/11 02:45:06;;;;;;;13.30;10.27;;;;;;;16.04;89.10;100948.50;5120004;28;20450;-69
2022/07/11 02:47:36;;;;;;;13.37;9.93;;;;;;;16.05;89.03;100954.72;5119266;28;20495;-69
2022/07/11 02:50:02;;;;;;;14.10;9.93;;;;;;;16.07;88.97;100944.63;5119736;28;21131;-67
2022/07/11 02:52:29;;;;;;;12.30;10.10;;;;;;;16.01;89.20;100946.09;5118799;28;20542;-69
2022/07/11 02:54:56;;;;;;;19.33;12.30;;;;;;;15.92;89.44;100949.72;5120256;28;20450;-68
2022/07/11 02:57:22;;;;;;;18.17;13.23;;;;;;;15.97;89.41;100948.28;5119455;28;20543;-69
2022/07/11 02:59:49;;;;;;;16.47;12.57;;;;;;;16.03;89.25;100945.94;5119830;28;20429;-69
2022/07/11 03:02:15;;;;;;;14.27;11.80;;;;;;;15.98;89.57;100944.56;5118923;28;21136;-67
2022/07/11 03:04:43;;;;;;;16.77;12.73;;;;;;;16.05;89.50;100947.47;5118734;28;20995;-68
2022/07/11 03:07:10;;;;;;;18.60;12.17;;;;;;;16.10;89.47;100947.00;5118643;28;20470;-68
2022/07/11 03:09:37;;;;;;;17.27;13.30;;;;;;;16.00;89.67;100944.41;5120833;28;20435;-68
2022/07/11 03:12:05;;;;;;;18.67;13.43;;;;;;;15.99;89.66;100945.41;5122702;28;20476;-69
2022/07/11 03:14:31;;;;;;;16.87;12.50;;;;;;;15.99;89.94;100943.56;5123390;28;20484;-70
2022/07/11 03:16:58;;;;;;;17.70;13.30;;;;;;;16.08;89.81;100941.75;5122588;28;20533;-70
2022/07/11 03:19:25;;;;;;;19.30;13.93;;;;;;;16.03;89.73;100940.56;5123300;28;20460;-69
2022/07/11 03:21:53;;;;;;;17.60;13.93;;;;;;;15.98;89.69;100941.03;5121915;28;20481;-70
2022/07/11 03:24:19;;;;;;;20.80;16.03;;;;;;;15.97;89.68;100937.50;5123431;28;20525;-69
2022/07/11 03:26:46;;;;;;;18.90;14.13;;;;;;;16.08;89.50;100939.06;5123022;28;20529;-68
2022/07/11 03:29:13;;;;;;;23.20;14.40;;;;;;;16.02;90.24;100939.69;5123128;28;20481;-69
2022/07/11 03:31:39;;;;;;;21.67;15.00;;;;;;;16.05;90.24;100938.53;5122502;28;20466;-69
2022/07/11 03:34:06;;;;;;;27.70;16.10;;;;;;;16.05;89.59;100938.53;5122561;28;20457;-69
2022/07/11 03:36:33;;;;;;;18.13;14.63;;;;;;;16.11;89.67;100941.44;5122177;28;20549;-70
2022/07/11 03:39:01;;;;;;;19.70;15.40;;;;;;;16.18;89.48;100944.34;5123483;28;20501;-69
2022/07/11 03:41:27;;;;;;;19.90;15.20;;;;;;;16.06;89.72;100951.00;5122193;28;20466;-69
2022/07/11 03:43:55;;;;;;;21.13;15.80;;;;;;;16.01;90.06;100943.41;5123693;28;20457;-68
2022/07/11 03:46:22;;;;;;;20.00;16.37;;;;;;;16.03;90.10;100952.19;5122817;28;20477;-69
2022/07/11 03:48:49;;;;;;;26.07;16.10;;;;;;;15.92;90.38;100941.63;5122792;28;20438;-67
2022/07/11 03:51:16;;;;;;;21.93;15.97;;;;;;;16.13;89.89;100952.09;5122549;28;20484;-69
2022/07/11 03:53:43;;;;;;;16.63;14.57;;;;;;;16.12;90.01;100953.06;5122426;28;20956;-69
2022/07/11 03:56:11;;;;;;;20.30;14.87;;;;;;;16.23;89.25;100947.41;5122809;28;20466;-67
2022/07/11 03:58:38;;;;;;;19.00;14.63;;;;;;;16.32;88.97;100949.16;5122652;28;20470;-69
2022/07/11 04:01:05;;;;;;;21.03;15.43;;;;;;;16.29;88.19;100951.31;5121326;28;20513;-69
2022/07/11 04:03:32;;;;;;;19.17;14.93;;;;;;;16.33;88.19;100950.81;5123150;28;20445;-69
2022/07/11 04:05:58;;;;;;;18.30;13.50;;;;;;;16.33;88.41;100952.69;5122376;27;20577;-68
2022/07/11 04:08:25;;;;;;;14.77;12.77;;;;;;;16.39;88.41;100946.66;5122350;28;20477;-69
2022/07/11 04:10:51;;;;;;;21.57;13.20;;;;;;;16.17;87.97;100954.28;5115283;28;20494;-70
2022/07/11 04:13:20;;;;;;;16.93;13.13;;;;;;;16.36;87.98;100957.75;5114015;28;20438;-70
2022/07/11 04:15:46;;;;;;;14.70;12.40;;;;;;;16.37;87.66;100946.81;5120062;28;21057;-70
2022/07/11 04:18:13;;;;;;;18.83;12.77;;;;;;;16.36;87.49;100946.97;5119041;28;20485;-70
2022/07/11 04:20:40;;;;;;;15.37;12.60;;;;;;;16.28;87.80;100955.00;5120085;28;20495;-69
2022/07/11 04:23:07;;;;;;;20.60;11.87;;;;;;;16.30;87.99;100953.88;5121309;28;20517;-70
2022/07/11 04:25:34;;;;;;;25.03;12.77;;;;;;;16.25;87.98;100947.22;5117368;28;20499;-70
2022/07/11 04:28:01;;;;;;;17.03;11.60;;;;;;;16.23;88.92;100946.56;5119908;28;20495;-68
2022/07/11 04:30:29;;;;;;;18.80;12.60;;;;;;;16.19;88.40;100946.88;5120089;28;20565;-70
2022/07/11 04:32:56;;;;;;;17.37;12.03;;;;;;;16.32;88.00;100945.59;5120923;28;20543;-69
2022/07/11 04:35:23;;;;;;;13.87;11.97;;;;;;;16.32;88.34;100956.41;5119434;28;20481;-69
2022/07/11 04:37:50;;;;;;;20.37;12.17;;;;;;;16.28;88.02;100957.72;5111525;28;20556;-67
2022/07/11 04:40:17;;;;;;;19.27;10.80;;;;;;;16.38;88.30;100966.53;5100017;28;20451;-70
2022/07/11 04:42:44;;;;;;;12.97;11.10;;;;;;;16.49;87.88;100960.88;5101363;28;20443;-71
2022/07/11 04:45:11;;;;;;;15.17;9.90;;;;;;;16.53;87.55;100969.50;5100331;28;20455;-68
2022/07/11 04:47:39;;;;;;;17.80;10.87;;;;;;;16.60;86.82;100964.28;5099615;28;20427;-68
2022/07/11 04:50:06;;;;;;;12.90;10.03;;;;;;;16.69;86.53;100963.31;5100807;28;20479;-69
2022/07/11 04:52:33;;;;;;;13.80;9.70;;;;;;;16.68;86.43;100965.16;5099982;28;20459;-66
2022/07/11 04:55:00;;;;;;;18.00;8.93;;;;;;;16.69;86.27;100963.31;5100397;28;20487;-68
2022/07/11 04:57:27;;;;;;;11.40;9.17;;;;;;;16.55;86.43;100970.16;5101006;28;21087;-69
2022/07/11 04:59:53;;;;;;;11.53;9.70;;;;;;;16.63;86.32;100969.34;5100398;28;20486;-68
2022/07/11 05:02:20;;;;;;;10.50;8.13;;;;;;;16.70;86.24;100963.16;5098679;28;20482;-67
2022/07/11 05:04:48;;;;;;;9.70;8.43;;;;;;;16.74;86.26;100974.47;5100790;28;20718;-69
2022/07/11 05:07:15;;;;;;;12.87;8.07;;;;;;;16.66;86.32;100979.81;5099555;28;20894;-69
2022/07/11 05:09:42;;;;;;;10.83;8.10;;;;;;;16.64;86.28;100979.97;5099699;28;20940;-69
2022/07/11 05:12:09;;;;;;;10.90;7.83;;;;;;;16.50;86.54;100986.00;5099354;28;20505;-73
2022/07/11 05:14:36;;;;;;;8.20;7.40;;;;;;;16.55;86.94;100989.06;5100692;28;20516;-68
2022/07/11 05:17:03;;;;;;;10.07;8.50;;;;;;;16.53;87.54;100986.53;5098357;28;20475;-69
2022/07/11 05:19:29;;;;;;;8.97;7.80;;;;;;;16.57;87.07;100987.88;5099590;28;21015;-70
2022/07/11 05:21:57;;;;;;;9.80;7.97;;;;;;;16.53;87.59;100991.09;5099153;28;20479;-69
2022/07/11 05:24:25;;;;;;;8.33;7.23;;;;;;;16.45;87.84;100997.28;5099129;28;20451;-67
2022/07/11 05:26:51;;;;;;;8.80;5.77;;;;;;;16.31;87.23;100996.00;5098958;28;20714;-69
2022/07/11 05:29:18;;;;;;;5.90;4.53;;;;;;;16.30;87.22;100993.47;5106799;28;20439;-68
2022/07/11 05:31:50;;;;;;;6.33;4.20;;;;;;;16.32;86.55;100994.19;5108157;28;20471;-68
2022/07/11 05:34:17;;;;;;;4.77;3.70;;;;;;;16.27;86.15;101002.75;5103551;28;20527;-69
2022/07/11 05:36:44;;;;;;;7.07;3.60;;;;;;;16.21;86.13;101010.63;5110950;27;21258;-68
2022/07/11 05:39:12;;;;;;;3.37;3.07;;;;;;;16.17;86.59;101013.63;5140440;27;20465;-69
2022/07/11 05:41:39;;;;;;;2.93;2.70;;;;;;;16.09;87.68;101016.28;5140192;27;20469;-68
2022/07/11 05:44:06;;;;;;;4.43;2.50;;;;;;;15.92;87.72;101003.66;5141010;27;20449;-69
2022/07/11 05:46:32;;;;;;;4.10;2.90;;;;;;;15.85;88.27;101016.97;5139389;27;20465;-67
2022/07/11 05:48:59;;;;;;;3.40;3.03;;;;;;;15.45;90.39;101012.88;5141425;27;20445;-68
2022/07/11 05:51:26;;;;;;;3.33;3.03;;;;;;;15.57;90.37;101017.03;5140686;27;20859;-68
2022/07/11 05:53:52;;;;;;;3.40;3.10;;;;;;;15.80;89.60;101028.19;5140361;27;20449;-68
2022/07/11 05:56:21;;;;;;;4.63;2.50;;;;;;;15.81;89.28;101034.44;5140590;27;20469;-69
2022/07/11 05:58:47;;;;;;;3.10;2.70;;;;;;;15.79;88.13;101029.19;5141105;27;20465;-68
2022/07/11 06:01:14;;;;;;;4.33;2.20;;;;;;;15.74;87.16;101026.06;5139536;27;20862;-68
2022/07/11 06:03:41;;;;;;;7.37;2.40;;;;;;;15.66;86.17;101027.84;5140809;27;20429;-68
2022/07/11 06:06:08;;;;;;;3.97;2.50;;;;;;;16.03;85.04;101027.69;5140273;27;20469;-69
2022/07/11 06:08:43;;;;;;;2.03;1.73;;;;;;;16.09;84.86;101024.38;5139644;27;20961;-69
2022/07/11 06:11:11;;;;;;;4.30;2.00;;;;;;;16.28;82.72;101023.31;5140207;27;20498;-69
2022/07/11 06:13:40;;;;;;;2.20;1.80;;;;;;;16.55;81.84;101027.69;5140871;27;20422;-69
2022/07/11 06:16:07;;;;;;;4.10;2.57;;;;;;;16.47;82.63;101035.72;5128288;27;20484;-69
2022/07/11 06:18:34;;;;;;;2.87;1.70;;;;;;;16.74;81.92;101026.59;5119892;28;20502;-69
2022/07/11 06:21:01;;;;;;;3.27;2.00;;;;;;;16.92;81.27;101031.94;5119466;28;20474;-69
2022/07/11 06:23:28;;;;;;;6.27;2.70;;;;;;;17.05;79.81;101033.34;5118995;28;20450;-69
2022/07/11 06:25:58;;;;;;;3.43;2.37;;;;;;;17.08;79.87;101041.09;5119427;28;20473;-69
2022/07/11 06:28:25;;;;;;;4.30;2.40;;;;;;;17.15;80.15;101031.38;5120122;28;20422;-70
2022/07/11 06:30:53;;;;;;;2.23;2.03;;;;;;;17.18;80.63;101032.88;5118502;28;20546;-68
2022/07/11 06:33:20;;;;;;;2.70;2.23;;;;;;;17.24;80.56;101032.22;5120224;28;20978;-70
2022/07/11 06:35:48;;;;;;;4.40;2.40;;;;;;;17.27;79.61;101030.03;5118827;28;20901;-70
2022/07/11 06:38:16;;;;;;;3.50;2.57;;;;;;;16.90;79.10;101039.34;5119114;28;20528;-69
2022/07/11 06:40:43;;;;;;;4.00;2.57;;;;;;;17.57;78.70;101040.38;5119128;28;20523;-70
2022/07/11 06:43:10;;;;;;;3.67;2.53;;;;;;;17.88;77.92;101037.91;5120270;28;20426;-69
2022/07/11 06:45:37;;;;;;;4.13;2.73;;;;;;;18.25;75.46;101048.19;5120672;28;20469;-68
2022/07/11 06:48:06;;;;;;;3.73;2.83;;;;;;;18.35;74.84;101037.19;5124346;28;20426;-70
2022/07/11 06:50:33;;;;;;;5.60;2.63;;;;;;;18.55;72.65;101037.63;5124310;28;21057;-70
2022/07/11 06:53:00;;;;;;;5.57;2.93;;;;;;;18.98;72.80;101038.19;5123515;28;20446;-68
2022/07/11 06:55:27;;;;;;;4.00;2.27;;;;;;;19.14;71.25;101049.97;5122826;28;20920;-70
2022/07/11 06:57:53;;;;;;;4.13;2.20;;;;;;;19.67;70.56;101039.28;5124045;28;20483;-70
2022/07/11 07:00:20;;;;;;;3.13;2.40;;;;;;;19.79;66.14;101037.88;5123193;28;20431;-69
2022/07/11 07:02:47;;;;;;;3.67;2.20;;;;;;;20.94;64.18;101039.44;5123721;28;20661;-70
2022/07/11 07:05:15;;;;;;;2.50;2.00;;;;;;;22.04;61.37;101044.78;5122845;28;20479;-70
2022/07/11 07:07:42;;;;;;;2.70;1.63;;;;;;;23.52;55.48;101037.22;5122913;28;20483;-70
2022/07/11 07:10:09;;;;;;;3.27;1.40;;;;;;;24.46;53.32;101038.09;5122363;28;20418;-70
2022/07/11 07:12:38;;;;;;;1.97;1.40;;;;;;;23.09;53.47;101027.47;5123820;28;20438;-70
2022/07/11 07:15:06;;;;;;;1.57;1.00;;;;;;;21.52;58.66;101025.88;5122937;28;20479;-70
2022/07/11 07:17:33;;;;;;;2.70;1.40;;;;;;;20.86;61.96;101029.50;5121781;28;20475;-69
2022/07/11 07:19:59;;;;;;;3.30;1.43;;;;;;;20.58;63.32;101028.47;5123022;28;20482;-71
2022/07/11 07:22:28;;;;;;;2.30;1.40;;;;;;;19.83;66.48;101033.78;5122593;28;20530;-70
2022/07/11 07:24:54;;;;;;;2.10;1.07;;;;;;;19.23;68.01;101032.63;5122648;28;20453;-70
2022/07/11 07:27:21;;;;;;;2.90;1.40;;;;;;;18.90;70.33;101035.50;5121709;28;20473;-67
2022/07/11 07:29:48;;;;;;;2.60;1.40;;;;;;;18.69;71.84;101038.75;5123302;28;20422;-70
2022/07/11 07:32:15;;;;;;;2.13;1.20;;;;;;;18.63;72.50;101034.91;5118607;28;20493;-70
2022/07/11 07:34:42;;;;;;;2.77;1.37;;;;;;;18.24;73.36;101035.69;5122043;28;20981;-68
2022/07/11 07:37:08;;;;;;;1.57;1.43;;;;;;;18.57;72.77;101042.88;5120959;28;20486;-69
2022/07/11 07:39:38;;;;;;;1.83;1.40;;;;;;;19.17;71.24;101046.91;5121837;28;20466;-70
2022/07/11 07:42:06;;;;;;;2.00;1.37;;;;;;;19.48;69.53;101033.31;5121502;28;21107;-70
2022/07/11 07:44:33;;;;;;;1.90;1.40;;;;;;;19.35;69.45;101033.91;5122281;28;20461;-70
2022/07/11 07:47:00;;;;;;;1.30;1.07;;;;;;;19.46;67.88;101045.38;5120114;28;20545;-70
2022/07/11 07:49:27;;;;;;;1.23;0.90;;;;;;;19.73;67.77;101044.00;5122015;28;20422;-70
2022/07/11 07:51:53;;;;;;;2.40;1.17;;;;;;;19.67;67.75;101039.28;5120471;28;20869;-69
2022/07/11 07:54:20;;;;;;;0.90;0.70;;;;;;;19.72;67.17;101045.00;5121810;28;20453;-70
2022/07/11 07:56:48;;;;;;;0.70;0.50;;;;;;;19.85;65.58;101045.28;5120824;28;20465;-69
2022/07/11 07:59:15;;;;;;;0.90;0.67;;;;;;;19.68;66.02;101051.84;5121660;28;20519;-70
2022/07/11 08:01:42;;;;;;;1.17;0.60;;;;;;;20.01;66.58;101049.72;5121058;28;20470;-70
2022/07/11 08:04:09;;;;;;;1.47;0.87;;;;;;;19.83;65.20;101041.91;5121533;28;20458;-69
2022/07/11 08:06:37;;;;;;;0.93;0.40;;;;;;;19.69;65.62;101048.94;5121199;28;20519;-70
2022/07/11 08:09:05;;;;;;;0.90;0.50;;;;;;;19.29;66.72;101056.31;5119687;28;20475;-70
2022/07/11 08:11:31;;;;;;;2.47;0.60;;;;;;;18.92;67.59;101059.72;5120610;28;20482;-71
2022/07/11 08:14:00;;;;;;;1.60;0.73;;;;;;;19.10;68.08;101051.34;5121879;28;20441;-70
2022/07/11 08:16:28;;;;;;;1.33;0.47;;;;;;;19.12;68.46;101054.72;5118603;28;20509;-70
2022/07/11 08:18:55;;;;;;;1.17;0.50;;;;;;;19.48;67.44;101051.47;5121076;28;20465;-70
2022/07/11 08:21:22;;;;;;;1.13;0.50;;;;;;;19.76;65.46;101051.81;5121282;28;20477;-71
2022/07/11 08:23:49;;;;;;;0.77;0.60;;;;;;;20.11;63.90;101053.03;5120757;28;20473;-68
2022/07/11 08:26:16;;;;;;;0.80;0.60;;;;;;;20.43;63.49;101052.88;5120297;28;20891;-70
2022/07/11 08:28:42;;;;;;;0.67;0.50;;;;;;;20.69;62.62;101064.19;5121287;28;20967;-71
2022/07/11 08:31:11;;;;;;;1.60;0.40;;;;;;;19.86;65.45;101048.84;5119496;28;20467;-71
2022/07/11 08:33:37;;;;;;;0.93;0.50;;;;;;;20.93;61.65;101048.59;5121163;28;20465;-71
2022/07/11 08:36:04;;;;;;;0.90;0.40;;;;;;;21.16;60.70;101059.38;5120627;28;20538;-70
2022/07/11 08:38:31;;;;;;;0.60;0.30;;;;;;;21.05;60.90;101055.25;5119837;28;20493;-71
2022/07/11 08:40:58;;;;;;;1.40;0.40;;;;;;;21.14;61.24;101055.16;5119900;28;20661;-71
2022/07/11 08:43:29;;;;;;;1.90;0.40;;;;;;;20.00;62.72;101044.47;5121058;28;20458;-69
2022/07/11 08:45:56;;;;;;;0.93;0.33;;;;;;;20.05;64.69;101045.63;5118597;28;20509;-71
2022/07/11 08:48:24;;;;;;;1.17;0.63;;;;;;;20.04;63.76;101051.25;5121116;28;20422;-71
2022/07/11 08:50:51;;;;;;;0.80;0.40;;;;;;;20.06;63.57;101051.91;5120386;28;20518;-71
2022/07/11 08:53:18;;;;;;;0.90;0.40;;;;;;;19.91;63.68;101050.00;5119863;28;21042;-69
2022/07/11 08:55:45;;;;;;;2.83;0.47;;;;;;;19.84;65.39;101051.75;5119807;28;20489;-71
2022/07/11 08:58:14;;;;;;;1.00;0.50;;;;;;;19.99;63.56;101048.22;5120345;28;20434;-71
2022/07/11 09:00:42;;;;;;;1.73;0.53;;;;;;;19.61;65.79;101062.56;5119837;28;20470;-70
2022/07/11 09:03:17;;;;;;;1.47;0.40;;;;;;;19.18;67.09;101065.72;5120110;28;20440;-69
2022/07/11 09:05:45;;;;;;;0.80;0.37;;;;;;;19.30;66.64;101068.00;5118473;28;20488;-70
2022/07/11 09:08:12;;;;;;;2.97;0.33;;;;;;;19.22;67.22;101066.19;5118340;28;20484;-69
2022/07/11 09:10:40;;;;;;;1.37;0.60;;;;;;;19.40;67.07;101062.38;5120245;28;20465;-71
2022/07/11 09:13:10;;;;;;;1.20;0.67;;;;;;;19.27;65.89;101073.78;5121470;28;20844;-70
2022/07/11 09:15:38;;;;;;;1.20;0.40;;;;;;;19.39;66.89;101075.09;5119122;28;20494;-70
2022/07/11 09:18:06;;;;;;;0.93;0.40;;;;;;;19.12;67.43;101076.41;5120779;28;20475;-70
2022/07/11 09:26:26;;;;;;;0.90;0.50;;;;;;;18.71;69.92;101061.09;5120525;28;20469;-70
2022/07/11 09:29:00;;;;;;;0.80;0.50;;;;;;;19.30;68.13;101068.84;5120560;28;20431;-71
2022/07/11 09:31:28;;;;;;;2.90;0.50;;;;;;;19.56;67.60;101064.97;5120030;28;20533;-70
2022/07/11 09:34:02;;;;;;;1.57;0.60;;;;;;;19.33;68.11;101065.78;5120860;28;20488;-69
2022/07/11 09:36:47;;;;;;;0.93;0.53;;;;;;;19.79;67.54;101058.72;5119391;28;20489;-70
2022/07/11 09:39:15;;;;;;;0.90;0.70;;;;;;;19.48;67.73;101065.88;5120285;28;20482;-70
2022/07/11 09:41:43;;;;;;;0.97;0.70;;;;;;;20.13;64.79;101061.81;5119979;28;20506;-70
2022/07/11 09:44:15;;;;;;;1.13;0.60;;;;;;;20.57;62.85;101065.66;5119717;28;20718;-70
2022/07/11 09:46:42;;;;;;;2.00;0.80;;;;;;;20.49;62.68;101068.47;5119248;28;20484;-71
2022/07/11 09:49:09;;;;;;;0.93;0.60;;;;;;;20.69;62.61;101069.63;5121052;28;20464;-70
2022/07/11 09:51:37;;;;;;;3.00;1.00;;;;;;;20.67;61.43;101062.69;5118863;28;20473;-71
2022/07/11 09:54:06;;;;;;;1.57;1.07;;;;;;;20.44;62.61;101068.16;5120070;28;20475;-70
2022/07/11 09:56:34;;;;;;;2.57;0.80;;;;;;;20.81;61.72;101072.69;5119717;28;21022;-71
2022/07/11 09:59:01;;;;;;;0.83;0.60;;;;;;;20.47;61.79;101068.63;5119382;28;20498;-70
2022/07/11 10:01:29;;;;;;;1.83;0.90;;;;;;;20.26;62.33;101068.53;5119267;28;20523;-70
2022/07/11 10:03:56;;;;;;;0.90;0.60;;;;;;;19.67;64.89;101069.97;5120260;28;20422;-71
2022/07/11 10:06:23;;;;;;;0.60;0.50;;;;;;;19.45;65.79;101065.38;5119398;28;20482;-70
2022/07/11 10:08:50;;;;;;;1.10;0.83;;;;;;;19.09;67.21;101071.34;5119674;28;20457;-70
2022/07/11 10:11:18;;;;;;;1.20;1.10;;;;;;;18.69;69.23;101062.31;5119700;28;20547;-70
2022/07/11 10:13:45;;;;;;;1.03;0.80;;;;;;;18.85;68.89;101074.97;5119794;28;20458;-70
2022/07/11 10:16:18;;;;;;;2.50;1.00;;;;;;;18.84;69.24;101062.47;5117989;28;20473;-71
2022/07/11 10:18:50;;;;;;;0.80;0.70;;;;;;;18.77;69.56;101067.72;5119653;28;20414;-70
2022/07/11 10:21:20;;;;;;;1.23;0.87;;;;;;;19.06;68.00;101066.25;5117380;28;21368;-71
2022/07/11 10:23:51;;;;;;;0.90;0.70;;;;;;;19.30;67.78;101071.56;5117937;28;20446;-71
2022/07/11 10:26:25;;;;;;;1.20;0.97;;;;;;;19.24;67.89;101066.03;5117241;28;20462;-70
2022/07/11 10:28:55;;;;;;;2.67;1.20;;;;;;;19.44;67.14;101066.41;5117126;28;21073;-70
2022/07/11 10:31:22;;;;;;;2.43;1.20;;;;;;;19.38;67.13;101074.22;5116879;28;20500;-70
2022/07/11 10:34:02;;;;;;;1.63;1.00;;;;;;;19.40;67.98;101078.63;5117624;28;20482;-71
2022/07/11 10:36:29;;;;;;;1.50;1.20;;;;;;;19.52;66.56;101074.50;5116166;28;20516;-71
2022/07/11 10:39:17;;;;;;;1.37;1.00;;;;;;;19.05;67.95;101076.25;5117057;28;20545;-71
2022/07/11 10:41:46;;;;;;;1.90;1.70;;;;;;;19.72;66.44;101067.56;5117225;28;20478;-71
2022/07/11 10:44:13;;;;;;;1.80;1.70;;;;;;;20.63;63.68;101070.38;5117070;28;20456;-70
2022/07/11 10:46:39;;;;;;;1.53;1.40;;;;;;;20.73;61.39;101072.81;5115790;28;20481;-70
2022/07/11 10:49:17;;;;;;;1.07;0.97;;;;;;;21.09;61.75;101073.91;5117966;28;20434;-71
2022/07/11 10:51:52;;;;;;;1.97;1.00;;;;;;;21.70;59.79;101071.72;5115686;28;20481;-71
2022/07/11 10:54:28;;;;;;;1.50;1.07;;;;;;;21.03;60.84;101075.50;5117281;28;20492;-71
2022/07/11 10:57:06;;;;;;;1.10;1.00;;;;;;;21.25;60.37;101079.16;5116622;28;20533;-71
2022/07/11 10:59:33;;;;;;;1.70;1.20;;;;;;;21.09;61.51;101068.47;5116697;28;20498;-72
2022/07/11 11:02:04;;;;;;;1.30;1.10;;;;;;;20.81;62.42;101074.59;5116452;28;20481;-70
2022/07/11 11:04:48;;;;;;;1.93;1.53;;;;;;;21.00;60.70;101073.16;5117562;28;20442;-71
2022/07/11 11:07:35;;;;;;;1.30;1.20;;;;;;;20.96;62.02;101069.16;5116632;28;20497;-71
2022/07/11 11:10:03;;;;;;;1.70;1.20;;;;;;;20.92;61.75;101075.97;5116114;28;20521;-71
2022/07/11 11:13:15;;;;;;;4.77;1.23;;;;;;;20.82;62.28;101070.84;5116077;28;20504;-71
2022/07/11 11:15:43;;;;;;;1.87;1.60;;;;;;;21.01;61.81;101067.53;5034494;28;20473;-72
2022/07/11 11:18:34;;;;;;;2.60;1.73;;;;;;;20.71;62.74;101072.16;5108662;28;21168;-72
2022/07/11 11:21:31;;;;;;;1.60;1.20;;;;;;;20.93;61.47;101073.06;5118056;28;20508;-70
2022/07/11 11:24:11;;;;;;;1.43;1.30;;;;;;;20.24;63.87;101076.00;5119019;28;20482;-72
2022/07/11 11:26:46;;;;;;;1.80;1.70;;;;;;;19.67;65.58;101071.84;5118683;28;20495;-72
2022/07/11 11:29:20;;;;;;;1.50;1.40;;;;;;;19.84;65.69;101076.19;5119047;28;20426;-72
2022/07/11 11:31:50;;;;;;;1.30;1.20;;;;;;;19.88;65.57;101080.22;5121214;28;20527;-70